Time;durP1;ratioP1;P1;durP2;ratioP2;P2;SDS_P1;SDS_P2;PMS_P1;PMS_P2;Temp;Humidity;BMP_temperature;BMP_pressure;BME280_temperature;BME280_humidity;BME280_pressure;Samples;Min_cycle;Max_cycle;Signal;HPM_P1;HPM_P2
2022/10/13 00:01:11;;;;;;;36.45;18.05;;;;;;;;;;4963705;28;20392;-74
2022/10/13 00:03:39;;;;;;;37.43;19.43;;;;;;;;;;4966119;28;20122;-73
2022/10/13 00:06:06;;;;;;;39.85;20.33;;;;;;;;;;4966827;28;20039;-75
2022/10/13 00:08:32;;;;;;;38.30;19.40;;;;;;;;;;4967872;28;20039;-73
2022/10/13 00:10:59;;;;;;;42.30;18.73;;;;;;;;;;4979516;28;20732;-73
2022/10/13 00:13:25;;;;;;;32.78;18.90;;;;;;;;;;4967280;28;20129;-73
2022/10/13 00:15:52;;;;;;;35.47;18.25;;;;;;;;;;4966998;28;20112;-73
2022/10/13 00:18:18;;;;;;;33.60;19.33;;;;;;;;;;4964536;28;20031;-73
2022/10/13 00:20:45;;;;;;;38.38;18.88;;;;;;;;;;4964256;28;20077;-73
2022/10/13 00:23:12;;;;;;;33.97;19.10;;;;;;;;;;4964101;28;20500;-74
2022/10/13 00:25:42;;;;;;;33.47;18.42;;;;;;;;;;4966799;28;20069;-73
2022/10/13 00:28:08;;;;;;;37.08;18.27;;;;;;;;;;4965680;28;20520;-73
2022/10/13 00:30:35;;;;;;;32.00;18.15;;;;;;;;;;4962837;28;20301;-73
2022/10/13 00:33:01;;;;;;;35.50;18.42;;;;;;;;;;4964808;28;20035;-73
2022/10/13 00:35:27;;;;;;;32.35;17.45;;;;;;;;;;4967579;28;20508;-73
2022/10/13 00:37:53;;;;;;;32.45;18.35;;;;;;;;;;4967564;28;20066;-72
2022/10/13 00:40:19;;;;;;;36.53;17.10;;;;;;;;;;4964600;28;20485;-72
2022/10/13 00:42:45;;;;;;;33.83;17.15;;;;;;;;;;4978007;28;20153;-72
2022/10/13 00:45:17;;;;;;;32.90;17.63;;;;;;;;;;4963380;28;20137;-72
2022/10/13 00:47:45;;;;;;;29.38;16.95;;;;;;;;;;4965259;28;20062;-72
2022/10/13 00:50:14;;;;;;;29.45;17.83;;;;;;;;;;4968083;28;20057;-73
2022/10/13 00:52:41;;;;;;;35.70;17.13;;;;;;;;;;4965814;28;20084;-72
2022/10/13 00:55:08;;;;;;;35.10;18.30;;;;;;;;;;4967413;28;20033;-72
2022/10/13 00:57:34;;;;;;;34.95;18.80;;;;;;;;;;4967632;28;20042;-72
2022/10/13 01:00:00;;;;;;;37.10;19.00;;;;;;;;;;4963493;28;20111;-73
2022/10/13 01:02:30;;;;;;;32.53;19.20;;;;;;;;;;4962058;28;20510;-72
2022/10/13 01:04:56;;;;;;;34.28;19.85;;;;;;;;;;4964770;28;20046;-73
2022/10/13 01:07:22;;;;;;;34.75;19.70;;;;;;;;;;4963563;28;20047;-73
2022/10/13 01:09:49;;;;;;;37.80;18.35;;;;;;;;;;4964107;28;20042;-73
2022/10/13 01:12:34;;;;;;;31.38;18.70;;;;;;;;;;4962757;28;20034;-75
2022/10/13 01:15:15;;;;;;;32.45;18.90;;;;;;;;;;4963224;28;20095;-73
2022/10/13 01:17:41;;;;;;;;;;;;;;;;;;4961663;28;20054;-73
2022/10/13 01:20:13;;;;;;;34.28;18.17;;;;;;;;;;4965274;28;20367;-73
2022/10/13 01:22:58;;;;;;;33.45;18.02;;;;;;;;;;4966126;28;20030;-74
2022/10/13 01:25:49;;;;;;;31.13;18.30;;;;;;;;;;4966846;28;20305;-73
2022/10/13 01:28:34;;;;;;;30.58;17.48;;;;;;;;;;4965605;28;20062;-73
2022/10/13 01:31:06;;;;;;;38.25;18.75;;;;;;;;;;4966845;28;20118;-74
2022/10/13 01:33:44;;;;;;;30.17;17.58;;;;;;;;;;4964585;28;20038;-74
2022/10/13 01:36:10;;;;;;;31.52;18.05;;;;;;;;;;4962483;28;20049;-74
2022/10/13 01:38:43;;;;;;;34.35;20.15;;;;;;;;;;4967262;28;20039;-74
2022/10/13 01:41:13;;;;;;;36.88;19.10;;;;;;;;;;4964374;28;20137;-74
2022/10/13 01:43:41;;;;;;;33.10;18.77;;;;;;;;;;4962522;28;20065;-74
2022/10/13 01:46:12;;;;;;;31.92;17.80;;;;;;;;;;4967182;28;20122;-74
2022/10/13 01:48:39;;;;;;;38.95;19.08;;;;;;;;;;4979948;28;20042;-74
2022/10/13 01:51:06;;;;;;;36.08;18.88;;;;;;;;;;4970983;28;20035;-74
2022/10/13 01:53:33;;;;;;;36.50;18.90;;;;;;;;;;4972567;28;20038;-74
2022/10/13 01:56:00;;;;;;;31.63;18.30;;;;;;;;;;4965828;28;20058;-73
2022/10/13 01:58:31;;;;;;;33.72;19.83;;;;;;;;;;4964822;28;20039;-74
2022/10/13 02:01:16;;;;;;;41.03;19.60;;;;;;;;;;4968600;28;20057;-73
2022/10/13 02:03:52;;;;;;;34.53;19.00;;;;;;;;;;4967129;28;20061;-73
2022/10/13 02:06:24;;;;;;;31.02;17.95;;;;;;;;;;4970452;28;20110;-73
2022/10/13 02:08:50;;;;;;;35.15;19.90;;;;;;;;;;4969033;28;20035;-73
2022/10/13 02:11:17;;;;;;;31.33;19.95;;;;;;;;;;4973188;28;20046;-73
2022/10/13 02:13:57;;;;;;;31.73;18.90;;;;;;;;;;4970385;28;20038;-74
2022/10/13 02:16:24;;;;;;;37.45;20.00;;;;;;;;;;4973601;28;20029;-73
2022/10/13 02:18:50;;;;;;;46.60;20.67;;;;;;;;;;4971750;28;20118;-73
2022/10/13 02:21:17;;;;;;;38.70;20.88;;;;;;;;;;4980541;28;20026;-73
2022/10/13 02:23:44;;;;;;;33.85;20.42;;;;;;;;;;4972228;28;20059;-72
2022/10/13 02:26:10;;;;;;;34.03;20.75;;;;;;;;;;4967624;28;20077;-72
2022/10/13 02:28:37;;;;;;;36.33;20.40;;;;;;;;;;4967441;28;20035;-72
2022/10/13 02:31:05;;;;;;;35.05;21.02;;;;;;;;;;4965848;28;20019;-73
2022/10/13 02:33:31;;;;;;;34.72;21.80;;;;;;;;;;4969935;28;20026;-73
2022/10/13 02:35:58;;;;;;;37.47;21.00;;;;;;;;;;4968935;28;20041;-72
2022/10/13 02:38:24;;;;;;;38.80;21.85;;;;;;;;;;4950077;28;20476;-72
2022/10/13 02:40:50;;;;;;;40.42;23.05;;;;;;;;;;4969537;28;20046;-72
2022/10/13 02:43:16;;;;;;;52.88;24.08;;;;;;;;;;4967507;28;20038;-72
2022/10/13 02:45:42;;;;;;;39.42;24.05;;;;;;;;;;4969350;28;20031;-72
2022/10/13 02:48:08;;;;;;;46.00;24.48;;;;;;;;;;4967714;28;20041;-72
2022/10/13 02:50:34;;;;;;;44.83;25.38;;;;;;;;;;4967278;28;20065;-72
2022/10/13 02:53:00;;;;;;;48.08;25.40;;;;;;;;;;4999789;28;20030;-72
2022/10/13 02:55:26;;;;;;;48.22;25.55;;;;;;;;;;4966471;28;20078;-72
2022/10/13 02:57:52;;;;;;;48.53;28.25;;;;;;;;;;4968685;28;20092;-73
2022/10/13 03:00:18;;;;;;;53.20;28.35;;;;;;;;;;4968086;28;20460;-72
2022/10/13 03:02:44;;;;;;;48.42;26.55;;;;;;;;;;4970795;28;20035;-73
2022/10/13 03:05:10;;;;;;;50.55;26.90;;;;;;;;;;4966308;28;20039;-74
2022/10/13 03:07:36;;;;;;;56.47;26.42;;;;;;;;;;4970079;28;20030;-73
2022/10/13 03:10:03;;;;;;;51.10;27.90;;;;;;;;;;4968053;28;20035;-74
2022/10/13 03:12:30;;;;;;;46.90;25.13;;;;;;;;;;4968296;28;20447;-74
2022/10/13 03:14:56;;;;;;;48.70;26.98;;;;;;;;;;4969761;28;20031;-72
2022/10/13 03:17:22;;;;;;;44.83;26.48;;;;;;;;;;4966253;28;20042;-73
2022/10/13 03:19:48;;;;;;;46.50;24.83;;;;;;;;;;4966189;28;20401;-72
2022/10/13 03:22:15;;;;;;;47.67;26.73;;;;;;;;;;4966508;28;20038;-72
2022/10/13 03:24:41;;;;;;;42.67;25.58;;;;;;;;;;4967493;28;20039;-72
2022/10/13 03:27:07;;;;;;;53.35;25.90;;;;;;;;;;4966076;28;20035;-72
2022/10/13 03:29:33;;;;;;;47.47;26.85;;;;;;;;;;4967335;28;20102;-72
2022/10/13 03:31:59;;;;;;;48.83;26.30;;;;;;;;;;4965793;28;20173;-73
2022/10/13 03:34:25;;;;;;;46.47;26.42;;;;;;;;;;4963730;28;20125;-73
2022/10/13 03:36:51;;;;;;;46.35;26.42;;;;;;;;;;4966610;28;20043;-72
2022/10/13 03:39:17;;;;;;;55.33;26.20;;;;;;;;;;4968146;28;20034;-73
2022/10/13 03:41:43;;;;;;;44.03;26.05;;;;;;;;;;4975727;28;20035;-73
2022/10/13 03:44:12;;;;;;;47.25;25.90;;;;;;;;;;4969707;28;20039;-74
2022/10/13 03:46:38;;;;;;;40.03;25.13;;;;;;;;;;4967687;28;20042;-73
2022/10/13 03:49:04;;;;;;;44.25;25.73;;;;;;;;;;4966451;28;20082;-74
2022/10/13 03:51:30;;;;;;;41.78;24.38;;;;;;;;;;4967340;28;20055;-73
2022/10/13 03:53:56;;;;;;;45.85;26.73;;;;;;;;;;4964679;28;20061;-74
2022/10/13 03:56:26;;;;;;;52.63;28.05;;;;;;;;;;4979601;28;20435;-73
2022/10/13 03:58:54;;;;;;;54.10;27.92;;;;;;;;;;4962720;28;20034;-73
2022/10/13 04:01:24;;;;;;;49.83;26.30;;;;;;;;;;4966160;28;20034;-73
2022/10/13 04:03:52;;;;;;;43.25;27.17;;;;;;;;;;4965851;28;20034;-74
2022/10/13 04:06:18;;;;;;;50.35;26.83;;;;;;;;;;4970347;28;20476;-73
2022/10/13 04:08:44;;;;;;;49.80;27.77;;;;;;;;;;4968734;28;20051;-73
2022/10/13 04:11:11;;;;;;;47.30;25.98;;;;;;;;;;4972720;28;20073;-74
2022/10/13 04:13:38;;;;;;;47.15;25.55;;;;;;;;;;4966989;28;20177;-73
2022/10/13 04:16:05;;;;;;;46.85;25.13;;;;;;;;;;4967125;28;20488;-73
2022/10/13 04:18:31;;;;;;;48.65;25.25;;;;;;;;;;4967559;28;20109;-73
2022/10/13 04:20:57;;;;;;;48.85;25.98;;;;;;;;;;4963693;28;20041;-73
2022/10/13 04:23:23;;;;;;;56.15;25.98;;;;;;;;;;4961957;28;20476;-73
2022/10/13 04:25:49;;;;;;;48.80;26.23;;;;;;;;;;4963350;28;20113;-73
2022/10/13 04:28:16;;;;;;;52.40;28.02;;;;;;;;;;4975123;28;20038;-73
2022/10/13 04:30:42;;;;;;;59.55;27.83;;;;;;;;;;4965417;28;20022;-74
2022/10/13 04:33:08;;;;;;;50.85;27.85;;;;;;;;;;4961485;28;20456;-74
2022/10/13 04:35:38;;;;;;;54.03;28.23;;;;;;;;;;4966551;28;20062;-73
2022/10/13 04:38:04;;;;;;;59.22;29.77;;;;;;;;;;4969750;28;20049;-73
2022/10/13 04:40:30;;;;;;;58.97;29.70;;;;;;;;;;4965822;28;20031;-73
2022/10/13 04:42:57;;;;;;;66.95;30.35;;;;;;;;;;4962721;28;20298;-73
2022/10/13 04:45:23;;;;;;;61.75;31.20;;;;;;;;;;4973399;28;20041;-73
2022/10/13 04:47:49;;;;;;;58.72;31.42;;;;;;;;;;4988756;28;20129;-74
2022/10/13 04:50:15;;;;;;;56.80;29.08;;;;;;;;;;4982258;28;20027;-74
2022/10/13 04:52:41;;;;;;;55.65;28.55;;;;;;;;;;4973045;28;20038;-73
2022/10/13 04:55:10;;;;;;;48.45;27.85;;;;;;;;;;4972131;28;20019;-74
2022/10/13 04:57:36;;;;;;;52.40;28.20;;;;;;;;;;5004933;28;20066;-74
2022/10/13 05:00:06;;;;;;;56.25;29.05;;;;;;;;;;4976551;28;20039;-75
2022/10/13 05:02:32;;;;;;;55.00;28.42;;;;;;;;;;4990060;28;20058;-72
2022/10/13 05:04:58;;;;;;;46.60;27.15;;;;;;;;;;4988144;28;20046;-73
2022/10/13 05:07:24;;;;;;;48.70;26.48;;;;;;;;;;4979960;28;20089;-73
2022/10/13 05:09:50;;;;;;;49.90;27.35;;;;;;;;;;4998256;28;20065;-72
2022/10/13 05:12:16;;;;;;;49.80;28.10;;;;;;;;;;4971177;28;20038;-73
2022/10/13 05:14:42;;;;;;;52.00;27.58;;;;;;;;;;4967412;28;20059;-72
2022/10/13 05:17:09;;;;;;;54.53;29.17;;;;;;;;;;4973959;28;20503;-73
2022/10/13 05:19:35;;;;;;;59.10;29.75;;;;;;;;;;4988183;28;20038;-73
2022/10/13 05:22:01;;;;;;;54.17;29.15;;;;;;;;;;4986583;28;20038;-74
2022/10/13 05:24:37;;;;;;;55.90;28.58;;;;;;;;;;4970441;28;20593;-74
2022/10/13 05:27:08;;;;;;;57.47;29.25;;;;;;;;;;4971300;28;20030;-73
2022/10/13 05:29:34;;;;;;;53.25;28.50;;;;;;;;;;4960488;28;20386;-73
2022/10/13 05:32:00;;;;;;;52.08;30.02;;;;;;;;;;4985359;28;20038;-73
2022/10/13 05:34:26;;;;;;;50.55;29.30;;;;;;;;;;4970217;28;20531;-73
2022/10/13 05:36:52;;;;;;;59.08;29.08;;;;;;;;;;4980378;28;20022;-73
2022/10/13 05:39:18;;;;;;;57.30;29.92;;;;;;;;;;4978346;28;20387;-73
2022/10/13 05:41:44;;;;;;;66.75;31.20;;;;;;;;;;4974065;28;20138;-73
2022/10/13 05:44:10;;;;;;;57.45;30.52;;;;;;;;;;4972484;28;20042;-73
2022/10/13 05:46:37;;;;;;;68.80;31.63;;;;;;;;;;4982573;28;20068;-73
2022/10/13 05:49:03;;;;;;;58.60;32.00;;;;;;;;;;4993820;28;20160;-73
2022/10/13 05:51:34;;;;;;;74.30;31.92;;;;;;;;;;4990546;28;20034;-73
2022/10/13 05:54:22;;;;;;;62.05;33.35;;;;;;;;;;4990822;28;20018;-73
2022/10/13 05:56:51;;;;;;;61.95;33.85;;;;;;;;;;4993302;28;20429;-73
2022/10/13 05:59:17;;;;;;;77.35;36.67;;;;;;;;;;4993514;28;20030;-73
2022/10/13 06:01:44;;;;;;;61.88;32.65;;;;;;;;;;4989676;28;20034;-74
2022/10/13 06:04:13;;;;;;;67.53;34.53;;;;;;;;;;4989863;28;20054;-73
2022/10/13 06:06:58;;;;;;;64.78;33.78;;;;;;;;;;4970183;28;20030;-75
2022/10/13 06:09:24;;;;;;;65.60;34.42;;;;;;;;;;4974266;28;20516;-74
2022/10/13 06:11:50;;;;;;;75.72;36.25;;;;;;;;;;4974259;28;20488;-73
2022/10/13 06:14:16;;;;;;;63.70;35.58;;;;;;;;;;4973377;28;20491;-74
2022/10/13 06:16:42;;;;;;;69.85;35.38;;;;;;;;;;4965305;28;20114;-73
2022/10/13 06:19:08;;;;;;;77.78;37.28;;;;;;;;;;5000675;28;20031;-74
2022/10/13 06:21:35;;;;;;;75.82;37.72;;;;;;;;;;4966622;28;20496;-74
2022/10/13 06:24:01;;;;;;;76.65;37.28;;;;;;;;;;4969788;28;20031;-74
2022/10/13 06:26:27;;;;;;;77.75;38.60;;;;;;;;;;4979794;28;20236;-75
2022/10/13 06:28:53;;;;;;;74.80;37.72;;;;;;;;;;5006894;28;20399;-73
2022/10/13 06:31:19;;;;;;;76.93;38.40;;;;;;;;;;4992856;28;20026;-73
2022/10/13 06:33:45;;;;;;;89.57;38.38;;;;;;;;;;4996330;28;20042;-73
2022/10/13 06:36:11;;;;;;;75.32;38.88;;;;;;;;;;4992400;28;20034;-74
2022/10/13 06:38:37;;;;;;;86.18;41.67;;;;;;;;;;4992599;28;20023;-74
2022/10/13 06:41:04;;;;;;;85.30;42.58;;;;;;;;;;4992998;28;20041;-74
2022/10/13 06:43:31;;;;;;;86.57;39.85;;;;;;;;;;4984158;28;20027;-74
2022/10/13 06:45:58;;;;;;;86.05;40.88;;;;;;;;;;5002310;28;20042;-74
2022/10/13 06:48:24;;;;;;;90.60;42.20;;;;;;;;;;4989825;28;20026;-74
2022/10/13 06:50:50;;;;;;;90.53;42.72;;;;;;;;;;4992148;28;20029;-74
2022/10/13 06:53:16;;;;;;;85.65;42.38;;;;;;;;;;4990954;28;20057;-74
2022/10/13 06:55:42;;;;;;;90.45;42.22;;;;;;;;;;4986972;28;20031;-74
2022/10/13 06:58:09;;;;;;;87.63;43.67;;;;;;;;;;4972646;28;20050;-74
2022/10/13 07:00:35;;;;;;;89.75;44.05;;;;;;;;;;4974639;28;20038;-74
2022/10/13 07:03:01;;;;;;;84.65;43.80;;;;;;;;;;4979854;28;20057;-74
2022/10/13 07:05:27;;;;;;;100.38;46.60;;;;;;;;;;4989738;28;20039;-74
2022/10/13 07:07:53;;;;;;;86.22;44.72;;;;;;;;;;4991790;28;20034;-74
2022/10/13 07:10:20;;;;;;;96.57;46.42;;;;;;;;;;4991801;28;20026;-74
2022/10/13 07:12:45;;;;;;;101.55;47.88;;;;;;;;;;4990095;28;20108;-74
2022/10/13 07:15:11;;;;;;;94.60;47.58;;;;;;;;;;4991215;28;20468;-74
2022/10/13 07:17:38;;;;;;;97.75;47.65;;;;;;;;;;4972165;28;20114;-74
2022/10/13 07:20:04;;;;;;;91.00;47.40;;;;;;;;;;4974305;28;20035;-74
2022/10/13 07:22:30;;;;;;;103.53;49.00;;;;;;;;;;4986601;28;20552;-72
2022/10/13 07:24:56;;;;;;;99.55;50.47;;;;;;;;;;4990728;28;20096;-74
2022/10/13 07:27:22;;;;;;;109.10;50.55;;;;;;;;;;4991395;28;20032;-73
2022/10/13 07:29:49;;;;;;;98.28;49.42;;;;;;;;;;4977638;28;20050;-73
2022/10/13 07:32:15;;;;;;;104.88;50.60;;;;;;;;;;4970023;28;20042;-73
2022/10/13 07:34:41;;;;;;;102.05;50.20;;;;;;;;;;4971547;28;20034;-73
2022/10/13 07:37:08;;;;;;;102.78;49.78;;;;;;;;;;4972516;28;20042;-73
2022/10/13 07:39:34;;;;;;;116.07;52.40;;;;;;;;;;4975404;28;20037;-73
2022/10/13 07:42:00;;;;;;;106.40;52.85;;;;;;;;;;4973252;28;20036;-72
2022/10/13 07:44:26;;;;;;;113.88;51.60;;;;;;;;;;4972235;28;20353;-73
2022/10/13 07:46:52;;;;;;;106.03;50.67;;;;;;;;;;4972237;28;20034;-73
2022/10/13 07:49:18;;;;;;;105.90;52.78;;;;;;;;;;4973369;28;20038;-73
2022/10/13 07:51:44;;;;;;;99.25;51.33;;;;;;;;;;4979646;28;20037;-73
2022/10/13 07:54:10;;;;;;;107.53;50.55;;;;;;;;;;4971645;28;20027;-73
2022/10/13 07:56:37;;;;;;;97.70;49.47;;;;;;;;;;4972034;28;20023;-74
2022/10/13 07:59:04;;;;;;;98.53;49.10;;;;;;;;;;4984958;28;20457;-73
2022/10/13 08:01:30;;;;;;;87.63;46.88;;;;;;;;;;4979603;28;20059;-73
2022/10/13 08:03:56;;;;;;;90.38;47.22;;;;;;;;;;4970710;28;20063;-74
2022/10/13 08:06:22;;;;;;;89.22;45.03;;;;;;;;;;4986364;28;20049;-73
2022/10/13 08:08:48;;;;;;;85.90;47.05;;;;;;;;;;4986144;28;20081;-73
2022/10/13 08:11:15;;;;;;;88.50;44.65;;;;;;;;;;4984464;28;20082;-73
2022/10/13 08:13:41;;;;;;;82.57;43.42;;;;;;;;;;4990919;28;20026;-72
2022/10/13 08:16:07;;;;;;;69.85;41.78;;;;;;;;;;4982894;28;20102;-74
2022/10/13 08:18:33;;;;;;;81.18;41.60;;;;;;;;;;4970991;28;20034;-73
2022/10/13 08:21:01;;;;;;;75.88;39.03;;;;;;;;;;4970401;28;20030;-74
2022/10/13 08:23:27;;;;;;;73.38;41.80;;;;;;;;;;4970347;28;20053;-73
2022/10/13 08:25:53;;;;;;;75.45;38.83;;;;;;;;;;4989499;28;20040;-74
2022/10/13 08:28:24;;;;;;;75.82;41.40;;;;;;;;;;4983435;28;20034;-74
2022/10/13 08:30:52;;;;;;;68.70;39.08;;;;;;;;;;4970755;28;20019;-73
2022/10/13 08:33:19;;;;;;;62.03;37.42;;;;;;;;;;4970715;28;20070;-73
2022/10/13 08:35:45;;;;;;;61.47;36.72;;;;;;;;;;4990324;28;20102;-73
2022/10/13 08:38:11;;;;;;;67.50;38.22;;;;;;;;;;4999706;28;20038;-74
2022/10/13 08:40:38;;;;;;;57.75;34.65;;;;;;;;;;4985446;28;20027;-74
2022/10/13 08:43:07;;;;;;;58.03;35.78;;;;;;;;;;4970118;28;20050;-73
2022/10/13 08:45:34;;;;;;;65.05;34.53;;;;;;;;;;4978704;28;20030;-73
2022/10/13 08:48:05;;;;;;;63.55;33.45;;;;;;;;;;4990670;28;20046;-73
2022/10/13 08:50:32;;;;;;;50.53;31.48;;;;;;;;;;4990469;28;20045;-74
2022/10/13 08:53:01;;;;;;;52.63;30.48;;;;;;;;;;4990907;28;20024;-74
2022/10/13 08:55:30;;;;;;;47.42;30.75;;;;;;;;;;5003965;28;20218;-73
2022/10/13 08:57:56;;;;;;;50.08;31.15;;;;;;;;;;4990323;28;20026;-73
2022/10/13 09:00:22;;;;;;;52.55;31.77;;;;;;;;;;4977546;28;20019;-73
2022/10/13 09:02:48;;;;;;;53.17;31.67;;;;;;;;;;4970984;28;20039;-73
2022/10/13 09:05:50;;;;;;;48.65;31.40;;;;;;;;;;4970085;28;20035;-73
2022/10/13 09:08:19;;;;;;;50.55;30.80;;;;;;;;;;5007152;28;20479;-73
2022/10/13 09:10:48;;;;;;;48.22;32.65;;;;;;;;;;4980625;28;20070;-73
2022/10/13 09:13:14;;;;;;;54.95;35.15;;;;;;;;;;4972484;28;20499;-72
2022/10/13 09:15:44;;;;;;;50.53;33.92;;;;;;;;;;4991390;28;20038;-71
2022/10/13 09:18:12;;;;;;;56.08;34.75;;;;;;;;;;4984222;28;20030;-72
2022/10/13 09:20:38;;;;;;;56.80;34.35;;;;;;;;;;4974122;28;20027;-73
2022/10/13 09:23:22;;;;;;;48.78;33.50;;;;;;;;;;4973431;28;20089;-72
2022/10/13 09:25:50;;;;;;;49.10;32.75;;;;;;;;;;4956609;28;20027;-74
2022/10/13 09:28:24;;;;;;;49.10;33.08;;;;;;;;;;4959258;28;20027;-73
2022/10/13 09:31:00;;;;;;;45.22;29.73;;;;;;;;;;4969573;28;20114;-73
2022/10/13 09:33:26;;;;;;;54.00;30.92;;;;;;;;;;4974069;28;20023;-73
2022/10/13 09:35:58;;;;;;;51.67;30.95;;;;;;;;;;4972902;28;20425;-73
2022/10/13 09:38:24;;;;;;;42.78;30.85;;;;;;;;;;4975747;28;20027;-73
2022/10/13 09:40:58;;;;;;;48.70;31.60;;;;;;;;;;4993260;28;20026;-73
2022/10/13 09:43:25;;;;;;;45.55;30.77;;;;;;;;;;4980106;28;20082;-73
2022/10/13 09:45:51;;;;;;;44.28;29.35;;;;;;;;;;4973604;28;20034;-73
2022/10/13 09:48:20;;;;;;;43.78;28.80;;;;;;;;;;4973553;28;20089;-73
2022/10/13 09:50:48;;;;;;;41.35;27.30;;;;;;;;;;4977899;28;20100;-73
2022/10/13 09:53:23;;;;;;;38.33;27.45;;;;;;;;;;4992934;28;20513;-74
2022/10/13 09:55:49;;;;;;;34.75;23.45;;;;;;;;;;4975080;28;20527;-73
2022/10/13 09:58:19;;;;;;;39.40;24.15;;;;;;;;;;4973116;28;20062;-73
2022/10/13 10:00:45;;;;;;;38.53;23.23;;;;;;;;;;4973092;28;20121;-74
2022/10/13 10:03:21;;;;;;;34.60;23.00;;;;;;;;;;4981784;28;20042;-73
2022/10/13 10:05:50;;;;;;;42.03;24.10;;;;;;;;;;4979175;28;20053;-74
2022/10/13 10:08:31;;;;;;;35.67;23.50;;;;;;;;;;4974497;28;20065;-73
2022/10/13 10:10:59;;;;;;;36.15;22.20;;;;;;;;;;4973178;28;20038;-73
2022/10/13 10:13:25;;;;;;;34.22;23.73;;;;;;;;;;4974198;28;20035;-74
2022/10/13 10:16:05;;;;;;;44.80;23.17;;;;;;;;;;4985350;28;20042;-74
2022/10/13 10:18:35;;;;;;;37.95;22.75;;;;;;;;;;4993764;28;20068;-74
2022/10/13 10:21:16;;;;;;;35.47;21.83;;;;;;;;;;4993292;28;20026;-74
2022/10/13 10:23:45;;;;;;;31.60;21.52;;;;;;;;;;5008030;28;20058;-74
2022/10/13 10:26:27;;;;;;;34.15;21.50;;;;;;;;;;4983371;28;20498;-73
2022/10/13 10:29:12;;;;;;;32.88;21.50;;;;;;;;;;4973162;28;20166;-72
2022/10/13 10:31:48;;;;;;;34.15;21.15;;;;;;;;;;4975394;28;20031;-73
2022/10/13 10:34:26;;;;;;;32.08;21.30;;;;;;;;;;4987747;28;20030;-73
2022/10/13 10:36:55;;;;;;;31.05;20.25;;;;;;;;;;4973817;28;20063;-73
2022/10/13 10:39:35;;;;;;;29.15;19.38;;;;;;;;;;4993028;28;20123;-73
2022/10/13 10:42:17;;;;;;;29.88;18.13;;;;;;;;;;4980267;28;20030;-73
2022/10/13 10:44:46;;;;;;;28.70;17.98;;;;;;;;;;4992188;28;20030;-73
2022/10/13 10:47:29;;;;;;;25.90;15.90;;;;;;;;;;4990982;28;20097;-73
2022/10/13 10:50:01;;;;;;;26.63;16.20;;;;;;;;;;5006668;28;20491;-73
2022/10/13 10:52:32;;;;;;;29.17;16.35;;;;;;;;;;4991923;28;20022;-74
2022/10/13 10:55:08;;;;;;;22.35;14.60;;;;;;;;;;4980709;28;20034;-73
2022/10/13 10:57:58;;;;;;;23.38;14.93;;;;;;;;;;4972724;28;20027;-73
2022/10/13 11:00:24;;;;;;;25.65;14.80;;;;;;;;;;4980107;28;20035;-73
2022/10/13 11:03:03;;;;;;;30.13;15.52;;;;;;;;;;4990180;28;20053;-74
2022/10/13 11:05:48;;;;;;;32.05;16.23;;;;;;;;;;4991743;28;20407;-73
2022/10/13 11:08:32;;;;;;;30.60;16.02;;;;;;;;;;4991965;28;20030;-73
2022/10/13 11:11:17;;;;;;;30.52;17.08;;;;;;;;;;4983777;28;20027;-73
2022/10/13 11:13:51;;;;;;;28.02;17.45;;;;;;;;;;4971346;28;20511;-73
2022/10/13 11:16:28;;;;;;;31.42;18.05;;;;;;;;;;4972512;28;20038;-74
2022/10/13 11:19:05;;;;;;;31.40;17.83;;;;;;;;;;4972450;28;20026;-74
2022/10/13 11:21:49;;;;;;;34.58;19.13;;;;;;;;;;4962426;28;20458;-74
2022/10/13 11:24:33;;;;;;;32.38;17.90;;;;;;;;;;4958836;28;20034;-73
2022/10/13 11:27:09;;;;;;;30.27;18.23;;;;;;;;;;4976628;28;20381;-74
2022/10/13 11:29:51;;;;;;;27.85;19.05;;;;;;;;;;4972151;28;20039;-73
2022/10/13 11:32:40;;;;;;;30.00;18.52;;;;;;;;;;4971898;28;20030;-75
2022/10/13 11:35:09;;;;;;;32.70;18.98;;;;;;;;;;4973166;28;20117;-74
2022/10/13 11:37:38;;;;;;;34.95;19.23;;;;;;;;;;4978612;28;20061;-74
2022/10/13 11:40:04;;;;;;;32.45;20.15;;;;;;;;;;4971387;28;20070;-72
2022/10/13 11:42:33;;;;;;;31.40;19.98;;;;;;;;;;4968188;28;20038;-72
2022/10/13 11:45:22;;;;;;;37.88;21.55;;;;;;;;;;4969224;28;20170;-72
2022/10/13 11:48:01;;;;;;;34.58;20.50;;;;;;;;;;4973245;28;20043;-72
2022/10/13 11:50:36;;;;;;;33.05;20.48;;;;;;;;;;4971731;28;20496;-72
2022/10/13 11:53:02;;;;;;;48.10;20.83;;;;;;;;;;4974277;28;20042;-73
2022/10/13 11:55:47;;;;;;;31.67;20.55;;;;;;;;;;4975342;28;20432;-73
2022/10/13 11:58:23;;;;;;;36.20;19.90;;;;;;;;;;4991090;28;20093;-73
2022/10/13 12:00:57;;;;;;;31.63;21.13;;;;;;;;;;4987731;28;20030;-73
2022/10/13 12:03:28;;;;;;;38.50;20.77;;;;;;;;;;4990631;28;20042;-75
2022/10/13 12:05:56;;;;;;;33.95;21.17;;;;;;;;;;4990645;28;20125;-73
2022/10/13 12:08:22;;;;;;;41.97;21.83;;;;;;;;;;4989925;28;20033;-73
2022/10/13 12:10:54;;;;;;;32.78;21.05;;;;;;;;;;4977525;28;20089;-73
2022/10/13 12:13:22;;;;;;;30.38;20.90;;;;;;;;;;4971255;28;20055;-73
2022/10/13 12:15:48;;;;;;;39.25;20.52;;;;;;;;;;4969770;28;20357;-74
2022/10/13 12:18:26;;;;;;;37.90;20.92;;;;;;;;;;4971244;28;20031;-73
2022/10/13 12:20:56;;;;;;;35.88;21.40;;;;;;;;;;4971009;28;20023;-73
2022/10/13 12:23:22;;;;;;;35.03;20.90;;;;;;;;;;4985435;28;20027;-72
2022/10/13 12:25:55;;;;;;;31.58;20.90;;;;;;;;;;4993349;28;20336;-72
2022/10/13 12:28:22;;;;;;;46.08;22.90;;;;;;;;;;4984648;28;20082;-72
2022/10/13 12:30:52;;;;;;;33.88;21.92;;;;;;;;;;4970442;28;20023;-72
2022/10/13 12:33:38;;;;;;;41.47;22.40;;;;;;;;;;5000455;28;20030;-73
2022/10/13 12:36:11;;;;;;;40.67;21.85;;;;;;;;;;4990592;28;20060;-73
2022/10/13 12:38:40;;;;;;;38.28;20.83;;;;;;;;;;4990630;28;20031;-72
2022/10/13 12:41:06;;;;;;;39.75;21.83;;;;;;;;;;4974433;28;20479;-72
2022/10/13 12:43:32;;;;;;;36.90;22.65;;;;;;;;;;4966112;28;20104;-72
2022/10/13 12:45:58;;;;;;;39.60;21.73;;;;;;;;;;4964942;28;20045;-72
2022/10/13 12:48:31;;;;;;;38.05;23.02;;;;;;;;;;4966920;28;20062;-72
2022/10/13 12:51:27;;;;;;;38.50;21.98;;;;;;;;;;4962887;28;20030;-72
2022/10/13 12:53:53;;;;;;;36.08;20.65;;;;;;;;;;4970894;28;20062;-72
2022/10/13 12:56:26;;;;;;;34.95;20.65;;;;;;;;;;4968426;28;20558;-73
2022/10/13 12:58:52;;;;;;;36.60;19.15;;;;;;;;;;4974302;28;20122;-71
2022/10/13 13:01:26;;;;;;;33.83;18.52;;;;;;;;;;4965910;28;20023;-72
2022/10/13 13:03:56;;;;;;;34.17;18.48;;;;;;;;;;4965847;28;20062;-73
2022/10/13 13:06:27;;;;;;;32.33;18.02;;;;;;;;;;4971350;28;20035;-72
2022/10/13 13:09:16;;;;;;;35.70;18.15;;;;;;;;;;4968912;28;20046;-73
2022/10/13 13:11:42;;;;;;;32.00;17.65;;;;;;;;;;4971012;28;20488;-73
2022/10/13 13:14:24;;;;;;;30.13;17.02;;;;;;;;;;4970964;28;20042;-74
2022/10/13 13:17:03;;;;;;;25.20;15.90;;;;;;;;;;4969455;28;20509;-73
2022/10/13 13:19:31;;;;;;;26.40;15.52;;;;;;;;;;4967534;28;20033;-73
2022/10/13 13:21:57;;;;;;;29.67;15.75;;;;;;;;;;4968085;28;20077;-73
2022/10/13 13:24:23;;;;;;;37.03;17.10;;;;;;;;;;4968140;28;20546;-73
2022/10/13 13:26:49;;;;;;;33.25;16.10;;;;;;;;;;4969568;28;20038;-73
2022/10/13 13:29:15;;;;;;;30.42;19.30;;;;;;;;;;4969260;28;20030;-73
2022/10/13 13:31:41;;;;;;;33.45;17.58;;;;;;;;;;4971413;28;20081;-73
2022/10/13 13:34:07;;;;;;;28.00;18.02;;;;;;;;;;4970026;28;20034;-73
2022/10/13 13:36:33;;;;;;;28.80;16.67;;;;;;;;;;4971229;28;20034;-73
2022/10/13 13:38:59;;;;;;;23.50;16.02;;;;;;;;;;4970199;28;20058;-73
2022/10/13 13:41:29;;;;;;;35.25;17.73;;;;;;;;;;4967041;28;20039;-73
2022/10/13 13:43:55;;;;;;;30.05;17.38;;;;;;;;;;4965900;28;20035;-73
2022/10/13 13:46:26;;;;;;;28.15;17.75;;;;;;;;;;4979340;28;20042;-74
2022/10/13 13:48:52;;;;;;;37.38;18.67;;;;;;;;;;4966237;28;20023;-73
2022/10/13 13:51:18;;;;;;;34.92;19.48;;;;;;;;;;4960409;28;20511;-73
2022/10/13 13:53:45;;;;;;;51.38;21.40;;;;;;;;;;4962368;28;20023;-74
2022/10/13 13:56:15;;;;;;;33.85;20.10;;;;;;;;;;4965843;28;20114;-73
2022/10/13 13:58:41;;;;;;;36.17;20.73;;;;;;;;;;4967408;28;20034;-73
2022/10/13 14:01:07;;;;;;;30.27;20.23;;;;;;;;;;4970689;28;20065;-73
2022/10/13 14:03:33;;;;;;;33.65;20.17;;;;;;;;;;4967425;28;20055;-73
2022/10/13 14:05:59;;;;;;;37.20;21.60;;;;;;;;;;4980555;28;20031;-73
2022/10/13 14:08:25;;;;;;;39.60;21.67;;;;;;;;;;4966447;28;20046;-73
2022/10/13 14:10:51;;;;;;;15.75;10.73;;;;;;;;;;4967530;28;20122;-73
2022/10/13 14:13:17;;;;;;;18.15;11.85;;;;;;;;;;4970241;28;20026;-73
2022/10/13 14:15:43;;;;;;;19.83;12.35;;;;;;;;;;4969184;28;20042;-73
2022/10/13 14:18:09;;;;;;;16.70;12.68;;;;;;;;;;4967353;28;20732;-73
2022/10/13 14:20:40;;;;;;;14.75;10.77;;;;;;;;;;4966854;28;20423;-73
2022/10/13 14:23:06;;;;;;;17.13;11.05;;;;;;;;;;4966866;28;20041;-73
2022/10/13 14:25:32;;;;;;;63.55;33.30;;;;;;;;;;4982009;28;20039;-73
2022/10/13 14:27:58;;;;;;;34.92;20.10;;;;;;;;;;4964176;28;20042;-73